Nal'chik, Russia
Current Conditions -  °F | °C
As of 8:30 AM on Thursday 18 Dec 2014 (Local Time) from URMN Reporting Station
Moderate Fog Moderate Fog  
Wind Chill: 28°   Ceiling: 100
Heat Index: 28°   Visibility: 0.18mi
Dew Point: 28°   Wind: 0mph
Humidity: 100%   Direction: NA
Pressure: 30.03"   Gusts: NA
Location:  43.49°N, 43.61°E
Report Text: URMN 180530Z 00000MPS 0300 FZFG VV001 M02/M02 Q1017 NOSIG RMKQBB040 MT OBSC OBST OBSC QFE726 SC06
Loading
Personal Weather Stations






























Interactive Weather Map New forecast layout! Learn more

10-Day Weather Forecast

Advertisements
Track Severe Weather on mobile